sensor_id;sensor_type;location;lat;lon;timestamp;P1;durP1;ratioP1;P2;durP2;ratioP2
70967;SDS011;58629;48.808;8.820;2023-11-18T00:01:31;2.23;;;1.50;;
70967;SDS011;58629;48.808;8.820;2023-11-18T00:04:00;2.30;;;1.40;;
70967;SDS011;58629;48.808;8.820;2023-11-18T00:06:27;2.20;;;1.42;;
70967;SDS011;58629;48.808;8.820;2023-11-18T00:08:53;2.20;;;1.40;;
70967;SDS011;58629;48.808;8.820;2023-11-18T00:11:18;2.00;;;1.35;;
70967;SDS011;58629;48.808;8.820;2023-11-18T00:13:44;1.60;;;1.10;;
70967;SDS011;58629;48.808;8.820;2023-11-18T00:16:09;2.03;;;1.27;;
70967;SDS011;58629;48.808;8.820;2023-11-18T00:18:41;1.92;;;1.33;;
70967;SDS011;58629;48.808;8.820;2023-11-18T00:21:07;3.15;;;1.88;;
70967;SDS011;58629;48.808;8.820;2023-11-18T00:23:33;3.03;;;2.07;;
70967;SDS011;58629;48.808;8.820;2023-11-18T00:25:59;3.50;;;2.03;;
70967;SDS011;58629;48.808;8.820;2023-11-18T00:28:24;3.23;;;1.70;;
70967;SDS011;58629;48.808;8.820;2023-11-18T00:30:49;2.50;;;1.70;;
70967;SDS011;58629;48.808;8.820;2023-11-18T00:33:15;2.70;;;1.53;;
70967;SDS011;58629;48.808;8.820;2023-11-18T00:35:40;2.60;;;1.90;;
70967;SDS011;58629;48.808;8.820;2023-11-18T00:38:06;3.15;;;2.10;;
70967;SDS011;58629;48.808;8.820;2023-11-18T00:40:31;3.10;;;2.10;;
70967;SDS011;58629;48.808;8.820;2023-11-18T00:42:57;3.80;;;1.70;;
70967;SDS011;58629;48.808;8.820;2023-11-18T00:45:22;2.90;;;1.67;;
70967;SDS011;58629;48.808;8.820;2023-11-18T00:47:48;2.85;;;1.60;;
70967;SDS011;58629;48.808;8.820;2023-11-18T00:50:13;2.50;;;1.60;;
70967;SDS011;58629;48.808;8.820;2023-11-18T00:52:39;2.47;;;1.40;;
70967;SDS011;58629;48.808;8.820;2023-11-18T00:55:06;2.20;;;1.42;;
70967;SDS011;58629;48.808;8.820;2023-11-18T00:57:33;2.40;;;1.52;;
70967;SDS011;58629;48.808;8.820;2023-11-18T00:59:59;3.10;;;1.73;;
70967;SDS011;58629;48.808;8.820;2023-11-18T01:02:24;2.37;;;1.50;;
70967;SDS011;58629;48.808;8.820;2023-11-18T01:04:49;3.63;;;2.00;;
70967;SDS011;58629;48.808;8.820;2023-11-18T01:07:15;3.42;;;1.92;;
70967;SDS011;58629;48.808;8.820;2023-11-18T01:09:41;3.10;;;2.00;;
70967;SDS011;58629;48.808;8.820;2023-11-18T01:12:06;3.85;;;2.35;;
70967;SDS011;58629;48.808;8.820;2023-11-18T01:14:35;3.03;;;2.00;;
70967;SDS011;58629;48.808;8.820;2023-11-18T01:17:02;2.65;;;1.70;;
70967;SDS011;58629;48.808;8.820;2023-11-18T01:19:28;2.92;;;1.90;;
70967;SDS011;58629;48.808;8.820;2023-11-18T01:21:53;2.90;;;1.80;;
70967;SDS011;58629;48.808;8.820;2023-11-18T01:24:18;3.00;;;1.90;;
70967;SDS011;58629;48.808;8.820;2023-11-18T01:26:44;2.97;;;1.73;;
70967;SDS011;58629;48.808;8.820;2023-11-18T01:29:10;3.00;;;1.63;;
70967;SDS011;58629;48.808;8.820;2023-11-18T01:31:35;3.67;;;2.27;;
70967;SDS011;58629;48.808;8.820;2023-11-18T01:34:01;3.93;;;2.23;;
70967;SDS011;58629;48.808;8.820;2023-11-18T01:36:27;6.22;;;3.42;;
70967;SDS011;58629;48.808;8.820;2023-11-18T01:38:53;7.00;;;3.27;;
70967;SDS011;58629;48.808;8.820;2023-11-18T01:41:20;6.10;;;3.15;;
70967;SDS011;58629;48.808;8.820;2023-11-18T01:43:46;7.17;;;3.20;;
70967;SDS011;58629;48.808;8.820;2023-11-18T01:46:11;6.35;;;3.30;;
70967;SDS011;58629;48.808;8.820;2023-11-18T01:48:38;5.87;;;2.90;;
70967;SDS011;58629;48.808;8.820;2023-11-18T01:51:06;4.22;;;2.50;;
70967;SDS011;58629;48.808;8.820;2023-11-18T01:53:36;4.55;;;2.10;;
70967;SDS011;58629;48.808;8.820;2023-11-18T01:56:04;3.33;;;2.30;;
70967;SDS011;58629;48.808;8.820;2023-11-18T01:58:32;3.85;;;2.38;;
70967;SDS011;58629;48.808;8.820;2023-11-18T02:01:00;4.23;;;2.37;;
70967;SDS011;58629;48.808;8.820;2023-11-18T02:03:27;3.65;;;2.00;;
70967;SDS011;58629;48.808;8.820;2023-11-18T02:05:53;3.40;;;2.00;;
70967;SDS011;58629;48.808;8.820;2023-11-18T02:08:19;2.45;;;1.52;;
70967;SDS011;58629;48.808;8.820;2023-11-18T02:10:49;2.78;;;1.80;;
70967;SDS011;58629;48.808;8.820;2023-11-18T02:13:29;3.50;;;2.38;;
70967;SDS011;58629;48.808;8.820;2023-11-18T02:15:58;3.92;;;2.30;;
70967;SDS011;58629;48.808;8.820;2023-11-18T02:18:28;3.88;;;2.63;;
70967;SDS011;58629;48.808;8.820;2023-11-18T02:20:55;4.00;;;2.90;;
70967;SDS011;58629;48.808;8.820;2023-11-18T02:23:24;4.30;;;2.55;;
70967;SDS011;58629;48.808;8.820;2023-11-18T02:25:53;3.30;;;2.03;;
70967;SDS011;58629;48.808;8.820;2023-11-18T02:28:20;3.00;;;2.00;;
70967;SDS011;58629;48.808;8.820;2023-11-18T02:30:46;2.70;;;1.77;;
70967;SDS011;58629;48.808;8.820;2023-11-18T02:35:59;2.40;;;1.80;;
70967;SDS011;58629;48.808;8.820;2023-11-18T02:39:00;2.00;;;1.40;;
70967;SDS011;58629;48.808;8.820;2023-11-18T02:41:32;2.25;;;1.23;;
70967;SDS011;58629;48.808;8.820;2023-11-18T02:43:58;2.63;;;1.70;;
70967;SDS011;58629;48.808;8.820;2023-11-18T02:46:24;1.90;;;1.20;;
70967;SDS011;58629;48.808;8.820;2023-11-18T02:48:53;1.95;;;1.45;;
70967;SDS011;58629;48.808;8.820;2023-11-18T02:51:19;1.70;;;1.10;;
70967;SDS011;58629;48.808;8.820;2023-11-18T02:53:44;2.07;;;1.20;;
70967;SDS011;58629;48.808;8.820;2023-11-18T02:56:10;1.57;;;0.90;;
70967;SDS011;58629;48.808;8.820;2023-11-18T02:58:36;1.52;;;0.80;;
70967;SDS011;58629;48.808;8.820;2023-11-18T03:01:01;1.27;;;0.80;;
70967;SDS011;58629;48.808;8.820;2023-11-18T03:03:29;1.70;;;1.00;;
70967;SDS011;58629;48.808;8.820;2023-11-18T03:05:54;1.80;;;1.10;;
70967;SDS011;58629;48.808;8.820;2023-11-18T03:08:20;1.33;;;0.93;;
70967;SDS011;58629;48.808;8.820;2023-11-18T03:10:45;2.30;;;1.23;;
70967;SDS011;58629;48.808;8.820;2023-11-18T03:13:11;1.67;;;1.10;;
70967;SDS011;58629;48.808;8.820;2023-11-18T03:15:37;2.43;;;1.07;;
70967;SDS011;58629;48.808;8.820;2023-11-18T03:18:02;1.77;;;1.00;;
70967;SDS011;58629;48.808;8.820;2023-11-18T03:20:28;2.60;;;1.70;;
70967;SDS011;58629;48.808;8.820;2023-11-18T03:22:54;1.57;;;1.20;;
70967;SDS011;58629;48.808;8.820;2023-11-18T03:25:19;1.42;;;0.98;;
70967;SDS011;58629;48.808;8.820;2023-11-18T03:27:46;1.33;;;0.85;;
70967;SDS011;58629;48.808;8.820;2023-11-18T03:30:12;1.00;;;0.70;;
70967;SDS011;58629;48.808;8.820;2023-11-18T03:32:38;1.17;;;0.60;;
70967;SDS011;58629;48.808;8.820;2023-11-18T03:35:05;1.05;;;0.60;;
70967;SDS011;58629;48.808;8.820;2023-11-18T03:37:35;1.05;;;0.57;;
70967;SDS011;58629;48.808;8.820;2023-11-18T03:40:01;0.80;;;0.50;;
70967;SDS011;58629;48.808;8.820;2023-11-18T03:42:26;1.00;;;0.60;;
70967;SDS011;58629;48.808;8.820;2023-11-18T03:44:52;1.40;;;0.80;;
70967;SDS011;58629;48.808;8.820;2023-11-18T03:47:18;1.20;;;0.70;;
70967;SDS011;58629;48.808;8.820;2023-11-18T03:49:43;1.10;;;0.57;;
70967;SDS011;58629;48.808;8.820;2023-11-18T03:52:08;1.00;;;0.60;;
70967;SDS011;58629;48.808;8.820;2023-11-18T03:54:33;1.17;;;0.70;;
70967;SDS011;58629;48.808;8.820;2023-11-18T03:56:59;0.90;;;0.60;;
70967;SDS011;58629;48.808;8.820;2023-11-18T03:59:24;0.77;;;0.50;;
70967;SDS011;58629;48.808;8.820;2023-11-18T04:01:50;0.68;;;0.40;;
70967;SDS011;58629;48.808;8.820;2023-11-18T04:04:16;1.00;;;0.40;;
70967;SDS011;58629;48.808;8.820;2023-11-18T04:06:42;1.10;;;0.70;;
70967;SDS011;58629;48.808;8.820;2023-11-18T04:09:07;1.30;;;0.60;;
70967;SDS011;58629;48.808;8.820;2023-11-18T04:11:34;0.75;;;0.50;;
70967;SDS011;58629;48.808;8.820;2023-11-18T04:14:00;0.90;;;0.50;;
70967;SDS011;58629;48.808;8.820;2023-11-18T04:16:25;0.80;;;0.50;;
70967;SDS011;58629;48.808;8.820;2023-11-18T04:18:50;1.20;;;0.80;;
70967;SDS011;58629;48.808;8.820;2023-11-18T04:21:16;1.10;;;0.60;;
70967;SDS011;58629;48.808;8.820;2023-11-18T04:23:43;1.43;;;0.90;;
70967;SDS011;58629;48.808;8.820;2023-11-18T04:26:11;1.70;;;1.00;;
70967;SDS011;58629;48.808;8.820;2023-11-18T04:28:37;2.03;;;1.20;;
70967;SDS011;58629;48.808;8.820;2023-11-18T04:31:03;2.75;;;1.80;;
70967;SDS011;58629;48.808;8.820;2023-11-18T04:33:30;2.22;;;1.52;;
70967;SDS011;58629;48.808;8.820;2023-11-18T04:35:55;2.20;;;1.38;;
70967;SDS011;58629;48.808;8.820;2023-11-18T04:38:23;2.10;;;1.23;;
70967;SDS011;58629;48.808;8.820;2023-11-18T04:40:50;2.35;;;1.30;;
70967;SDS011;58629;48.808;8.820;2023-11-18T04:43:15;2.08;;;1.40;;
70967;SDS011;58629;48.808;8.820;2023-11-18T04:45:44;2.00;;;1.20;;
70967;SDS011;58629;48.808;8.820;2023-11-18T04:48:09;2.03;;;1.30;;
70967;SDS011;58629;48.808;8.820;2023-11-18T04:50:35;1.60;;;0.90;;
70967;SDS011;58629;48.808;8.820;2023-11-18T04:53:00;1.93;;;1.20;;
70967;SDS011;58629;48.808;8.820;2023-11-18T04:55:26;1.80;;;1.00;;
70967;SDS011;58629;48.808;8.820;2023-11-18T04:57:51;1.90;;;0.90;;
70967;SDS011;58629;48.808;8.820;2023-11-18T05:00:17;1.40;;;0.90;;
70967;SDS011;58629;48.808;8.820;2023-11-18T05:02:44;1.40;;;0.90;;
70967;SDS011;58629;48.808;8.820;2023-11-18T05:05:12;1.70;;;1.00;;
70967;SDS011;58629;48.808;8.820;2023-11-18T05:07:39;1.70;;;1.10;;
70967;SDS011;58629;48.808;8.820;2023-11-18T05:10:05;2.10;;;1.23;;
70967;SDS011;58629;48.808;8.820;2023-11-18T05:12:33;1.60;;;1.00;;
70967;SDS011;58629;48.808;8.820;2023-11-18T05:14:58;2.10;;;1.20;;
70967;SDS011;58629;48.808;8.820;2023-11-18T05:17:24;1.47;;;0.90;;
70967;SDS011;58629;48.808;8.820;2023-11-18T05:19:51;2.33;;;1.20;;
70967;SDS011;58629;48.808;8.820;2023-11-18T05:22:16;2.20;;;1.40;;
70967;SDS011;58629;48.808;8.820;2023-11-18T05:24:41;2.53;;;1.50;;
70967;SDS011;58629;48.808;8.820;2023-11-18T05:27:07;2.20;;;1.20;;
70967;SDS011;58629;48.808;8.820;2023-11-18T05:29:32;2.20;;;1.20;;
70967;SDS011;58629;48.808;8.820;2023-11-18T05:31:57;4.38;;;2.40;;
70967;SDS011;58629;48.808;8.820;2023-11-18T05:34:23;2.90;;;1.63;;
70967;SDS011;58629;48.808;8.820;2023-11-18T05:36:48;2.80;;;1.77;;
70967;SDS011;58629;48.808;8.820;2023-11-18T05:39:19;3.40;;;1.58;;
70967;SDS011;58629;48.808;8.820;2023-11-18T05:41:45;2.90;;;1.90;;
70967;SDS011;58629;48.808;8.820;2023-11-18T05:44:14;3.47;;;2.00;;
70967;SDS011;58629;48.808;8.820;2023-11-18T05:46:44;2.53;;;1.58;;
70967;SDS011;58629;48.808;8.820;2023-11-18T05:49:13;3.45;;;2.30;;
70967;SDS011;58629;48.808;8.820;2023-11-18T05:51:39;2.80;;;1.70;;
70967;SDS011;58629;48.808;8.820;2023-11-18T05:54:07;2.67;;;1.48;;
70967;SDS011;58629;48.808;8.820;2023-11-18T05:56:33;3.27;;;2.10;;
70967;SDS011;58629;48.808;8.820;2023-11-18T06:01:33;2.45;;;1.40;;
70967;SDS011;58629;48.808;8.820;2023-11-18T06:03:59;2.60;;;1.58;;
70967;SDS011;58629;48.808;8.820;2023-11-18T06:06:25;3.72;;;2.05;;
70967;SDS011;58629;48.808;8.820;2023-11-18T06:08:51;2.50;;;1.70;;
70967;SDS011;58629;48.808;8.820;2023-11-18T06:11:18;2.00;;;1.35;;
70967;SDS011;58629;48.808;8.820;2023-11-18T06:13:50;1.88;;;1.10;;
70967;SDS011;58629;48.808;8.820;2023-11-18T06:16:20;1.80;;;1.00;;
70967;SDS011;58629;48.808;8.820;2023-11-18T06:18:46;2.55;;;1.52;;
70967;SDS011;58629;48.808;8.820;2023-11-18T06:21:13;3.08;;;1.90;;
70967;SDS011;58629;48.808;8.820;2023-11-18T06:23:39;4.45;;;2.20;;
70967;SDS011;58629;48.808;8.820;2023-11-18T06:26:08;2.83;;;1.83;;
70967;SDS011;58629;48.808;8.820;2023-11-18T06:28:39;2.33;;;1.50;;
70967;SDS011;58629;48.808;8.820;2023-11-18T06:31:06;2.55;;;1.40;;
70967;SDS011;58629;48.808;8.820;2023-11-18T06:33:37;2.53;;;1.77;;
70967;SDS011;58629;48.808;8.820;2023-11-18T06:36:05;2.28;;;1.40;;
70967;SDS011;58629;48.808;8.820;2023-11-18T06:38:31;7.13;;;3.95;;
70967;SDS011;58629;48.808;8.820;2023-11-18T06:40:56;4.20;;;2.70;;
70967;SDS011;58629;48.808;8.820;2023-11-18T06:43:23;6.05;;;3.50;;
70967;SDS011;58629;48.808;8.820;2023-11-18T06:45:49;4.77;;;2.93;;
70967;SDS011;58629;48.808;8.820;2023-11-18T06:48:15;4.80;;;2.92;;
70967;SDS011;58629;48.808;8.820;2023-11-18T06:50:40;5.00;;;3.03;;
70967;SDS011;58629;48.808;8.820;2023-11-18T06:53:09;3.73;;;2.20;;
70967;SDS011;58629;48.808;8.820;2023-11-18T06:55:35;5.35;;;2.67;;
70967;SDS011;58629;48.808;8.820;2023-11-18T06:58:01;4.20;;;2.50;;
70967;SDS011;58629;48.808;8.820;2023-11-18T07:00:27;5.68;;;2.92;;
70967;SDS011;58629;48.808;8.820;2023-11-18T07:02:54;4.18;;;2.53;;
70967;SDS011;58629;48.808;8.820;2023-11-18T07:05:19;3.90;;;2.20;;
70967;SDS011;58629;48.808;8.820;2023-11-18T07:07:45;3.92;;;2.33;;
70967;SDS011;58629;48.808;8.820;2023-11-18T07:10:11;4.53;;;2.60;;
70967;SDS011;58629;48.808;8.820;2023-11-18T07:12:38;6.93;;;3.78;;
70967;SDS011;58629;48.808;8.820;2023-11-18T07:15:04;6.27;;;3.23;;
70967;SDS011;58629;48.808;8.820;2023-11-18T07:17:30;6.10;;;3.33;;
70967;SDS011;58629;48.808;8.820;2023-11-18T07:19:55;5.20;;;2.93;;
70967;SDS011;58629;48.808;8.820;2023-11-18T07:22:20;5.40;;;2.90;;
70967;SDS011;58629;48.808;8.820;2023-11-18T07:24:46;6.50;;;3.47;;
70967;SDS011;58629;48.808;8.820;2023-11-18T07:27:11;4.05;;;2.42;;
70967;SDS011;58629;48.808;8.820;2023-11-18T07:29:38;4.60;;;2.65;;
70967;SDS011;58629;48.808;8.820;2023-11-18T07:32:03;4.60;;;2.60;;
70967;SDS011;58629;48.808;8.820;2023-11-18T07:34:30;5.30;;;2.50;;
70967;SDS011;58629;48.808;8.820;2023-11-18T07:37:00;4.05;;;2.30;;
70967;SDS011;58629;48.808;8.820;2023-11-18T07:39:27;3.25;;;2.03;;
70967;SDS011;58629;48.808;8.820;2023-11-18T07:42:09;3.45;;;1.90;;
70967;SDS011;58629;48.808;8.820;2023-11-18T07:44:37;3.77;;;1.83;;
70967;SDS011;58629;48.808;8.820;2023-11-18T07:47:04;2.95;;;1.83;;
70967;SDS011;58629;48.808;8.820;2023-11-18T07:49:30;2.95;;;1.70;;
70967;SDS011;58629;48.808;8.820;2023-11-18T07:51:56;2.33;;;1.40;;
70967;SDS011;58629;48.808;8.820;2023-11-18T07:54:22;3.03;;;1.87;;
70967;SDS011;58629;48.808;8.820;2023-11-18T07:56:48;3.63;;;1.90;;
70967;SDS011;58629;48.808;8.820;2023-11-18T07:59:14;3.40;;;1.65;;
70967;SDS011;58629;48.808;8.820;2023-11-18T08:01:43;3.80;;;2.33;;
70967;SDS011;58629;48.808;8.820;2023-11-18T08:04:11;4.18;;;2.22;;
70967;SDS011;58629;48.808;8.820;2023-11-18T08:06:38;4.00;;;2.42;;
70967;SDS011;58629;48.808;8.820;2023-11-18T08:09:04;4.75;;;2.90;;
70967;SDS011;58629;48.808;8.820;2023-11-18T08:11:29;4.85;;;2.72;;
70967;SDS011;58629;48.808;8.820;2023-11-18T08:13:55;5.57;;;3.13;;
70967;SDS011;58629;48.808;8.820;2023-11-18T08:16:20;4.47;;;2.90;;
70967;SDS011;58629;48.808;8.820;2023-11-18T08:18:47;5.53;;;2.95;;
70967;SDS011;58629;48.808;8.820;2023-11-18T08:21:12;5.87;;;2.90;;
70967;SDS011;58629;48.808;8.820;2023-11-18T08:23:38;4.03;;;2.30;;
70967;SDS011;58629;48.808;8.820;2023-11-18T08:26:05;3.50;;;2.13;;
70967;SDS011;58629;48.808;8.820;2023-11-18T08:28:30;4.35;;;2.50;;
70967;SDS011;58629;48.808;8.820;2023-11-18T08:30:56;4.10;;;2.10;;
70967;SDS011;58629;48.808;8.820;2023-11-18T08:33:22;3.60;;;2.22;;
70967;SDS011;58629;48.808;8.820;2023-11-18T08:35:50;4.35;;;2.50;;
70967;SDS011;58629;48.808;8.820;2023-11-18T08:38:15;2.78;;;1.70;;
70967;SDS011;58629;48.808;8.820;2023-11-18T08:40:41;2.93;;;1.90;;
70967;SDS011;58629;48.808;8.820;2023-11-18T08:43:07;2.30;;;1.55;;
70967;SDS011;58629;48.808;8.820;2023-11-18T08:45:33;3.47;;;1.57;;
70967;SDS011;58629;48.808;8.820;2023-11-18T08:48:00;2.03;;;1.45;;
70967;SDS011;58629;48.808;8.820;2023-11-18T08:50:33;3.00;;;1.70;;
70967;SDS011;58629;48.808;8.820;2023-11-18T08:52:59;2.75;;;1.48;;
70967;SDS011;58629;48.808;8.820;2023-11-18T08:55:30;2.53;;;1.77;;
70967;SDS011;58629;48.808;8.820;2023-11-18T08:58:06;2.97;;;1.73;;
70967;SDS011;58629;48.808;8.820;2023-11-18T09:00:59;2.70;;;1.85;;
70967;SDS011;58629;48.808;8.820;2023-11-18T09:03:31;3.67;;;1.90;;
70967;SDS011;58629;48.808;8.820;2023-11-18T09:06:03;3.50;;;2.35;;
70967;SDS011;58629;48.808;8.820;2023-11-18T09:08:42;3.17;;;2.20;;
70967;SDS011;58629;48.808;8.820;2023-11-18T09:11:09;3.45;;;2.05;;
70967;SDS011;58629;48.808;8.820;2023-11-18T09:13:36;4.50;;;2.60;;
70967;SDS011;58629;48.808;8.820;2023-11-18T09:16:03;4.33;;;2.20;;
70967;SDS011;58629;48.808;8.820;2023-11-18T09:18:33;3.20;;;1.90;;
70967;SDS011;58629;48.808;8.820;2023-11-18T09:21:00;2.95;;;1.70;;
70967;SDS011;58629;48.808;8.820;2023-11-18T09:23:30;2.78;;;1.60;;
70967;SDS011;58629;48.808;8.820;2023-11-18T09:25:56;3.72;;;1.70;;
70967;SDS011;58629;48.808;8.820;2023-11-18T09:28:26;6.83;;;2.57;;
70967;SDS011;58629;48.808;8.820;2023-11-18T09:30:56;3.75;;;2.20;;
70967;SDS011;58629;48.808;8.820;2023-11-18T09:33:28;4.32;;;2.10;;
70967;SDS011;58629;48.808;8.820;2023-11-18T09:36:04;3.47;;;2.00;;
70967;SDS011;58629;48.808;8.820;2023-11-18T09:38:34;4.72;;;2.13;;
70967;SDS011;58629;48.808;8.820;2023-11-18T09:41:01;4.75;;;2.25;;
70967;SDS011;58629;48.808;8.820;2023-11-18T09:43:32;7.53;;;2.40;;
70967;SDS011;58629;48.808;8.820;2023-11-18T09:49:12;3.60;;;2.03;;
70967;SDS011;58629;48.808;8.820;2023-11-18T09:51:41;3.08;;;1.70;;
70967;SDS011;58629;48.808;8.820;2023-11-18T09:54:15;5.40;;;1.90;;
70967;SDS011;58629;48.808;8.820;2023-11-18T09:57:04;3.00;;;1.38;;
70967;SDS011;58629;48.808;8.820;2023-11-18T10:00:04;2.92;;;1.40;;
70967;SDS011;58629;48.808;8.820;2023-11-18T10:02:45;3.47;;;1.27;;
70967;SDS011;58629;48.808;8.820;2023-11-18T10:05:12;3.28;;;1.40;;
70967;SDS011;58629;48.808;8.820;2023-11-18T10:07:41;4.10;;;1.60;;
70967;SDS011;58629;48.808;8.820;2023-11-18T10:10:10;3.03;;;1.25;;
70967;SDS011;58629;48.808;8.820;2023-11-18T10:12:44;2.20;;;1.30;;
70967;SDS011;58629;48.808;8.820;2023-11-18T10:15:11;2.57;;;1.13;;
70967;SDS011;58629;48.808;8.820;2023-11-18T10:17:42;2.90;;;1.13;;
70967;SDS011;58629;48.808;8.820;2023-11-18T10:20:47;1.83;;;1.15;;
70967;SDS011;58629;48.808;8.820;2023-11-18T10:23:16;1.40;;;0.90;;
70967;SDS011;58629;48.808;8.820;2023-11-18T10:28:25;1.80;;;1.10;;
70967;SDS011;58629;48.808;8.820;2023-11-18T10:33:29;1.60;;;1.00;;
70967;SDS011;58629;48.808;8.820;2023-11-18T10:36:01;1.80;;;1.10;;
70967;SDS011;58629;48.808;8.820;2023-11-18T10:38:31;1.42;;;1.00;;
70967;SDS011;58629;48.808;8.820;2023-11-18T10:41:01;1.33;;;0.77;;
70967;SDS011;58629;48.808;8.820;2023-11-18T10:43:27;1.60;;;0.90;;
70967;SDS011;58629;48.808;8.820;2023-11-18T10:46:15;1.30;;;0.90;;
70967;SDS011;58629;48.808;8.820;2023-11-18T10:48:41;1.00;;;0.77;;
70967;SDS011;58629;48.808;8.820;2023-11-18T10:51:12;2.00;;;0.90;;
70967;SDS011;58629;48.808;8.820;2023-11-18T10:53:41;2.53;;;0.87;;
70967;SDS011;58629;48.808;8.820;2023-11-18T10:56:18;1.50;;;0.90;;
70967;SDS011;58629;48.808;8.820;2023-11-18T10:58:51;3.13;;;1.05;;
70967;SDS011;58629;48.808;8.820;2023-11-18T11:01:34;3.20;;;1.00;;
70967;SDS011;58629;48.808;8.820;2023-11-18T11:04:04;1.80;;;1.02;;
70967;SDS011;58629;48.808;8.820;2023-11-18T11:06:31;1.87;;;0.97;;
70967;SDS011;58629;48.808;8.820;2023-11-18T11:08:57;1.05;;;0.82;;
70967;SDS011;58629;48.808;8.820;2023-11-18T11:11:24;1.23;;;0.80;;
70967;SDS011;58629;48.808;8.820;2023-11-18T11:13:57;1.83;;;0.88;;
70967;SDS011;58629;48.808;8.820;2023-11-18T11:16:32;1.63;;;0.80;;
70967;SDS011;58629;48.808;8.820;2023-11-18T11:19:08;1.40;;;0.80;;
70967;SDS011;58629;48.808;8.820;2023-11-18T11:21:50;1.92;;;0.90;;
70967;SDS011;58629;48.808;8.820;2023-11-18T11:24:23;1.77;;;0.80;;
70967;SDS011;58629;48.808;8.820;2023-11-18T11:27:05;1.35;;;0.70;;
70967;SDS011;58629;48.808;8.820;2023-11-18T11:29:45;1.10;;;0.80;;
70967;SDS011;58629;48.808;8.820;2023-11-18T11:32:29;1.20;;;0.90;;
70967;SDS011;58629;48.808;8.820;2023-11-18T11:35:03;1.98;;;0.70;;
70967;SDS011;58629;48.808;8.820;2023-11-18T11:37:40;1.80;;;0.70;;
70967;SDS011;58629;48.808;8.820;2023-11-18T11:40:07;2.20;;;0.90;;
70967;SDS011;58629;48.808;8.820;2023-11-18T11:42:35;1.25;;;0.70;;
70967;SDS011;58629;48.808;8.820;2023-11-18T11:45:01;2.13;;;0.90;;
70967;SDS011;58629;48.808;8.820;2023-11-18T11:47:27;1.55;;;1.00;;
70967;SDS011;58629;48.808;8.820;2023-11-18T11:50:08;1.63;;;0.88;;
70967;SDS011;58629;48.808;8.820;2023-11-18T11:52:47;1.60;;;1.17;;
70967;SDS011;58629;48.808;8.820;2023-11-18T11:55:19;2.60;;;1.30;;
70967;SDS011;58629;48.808;8.820;2023-11-18T11:57:55;3.45;;;1.55;;
70967;SDS011;58629;48.808;8.820;2023-11-18T12:00:23;3.63;;;1.73;;
70967;SDS011;58629;48.808;8.820;2023-11-18T12:02:51;2.72;;;1.30;;
70967;SDS011;58629;48.808;8.820;2023-11-18T12:05:23;3.13;;;1.27;;
70967;SDS011;58629;48.808;8.820;2023-11-18T12:07:50;2.15;;;1.33;;
70967;SDS011;58629;48.808;8.820;2023-11-18T12:10:16;3.03;;;1.60;;
70967;SDS011;58629;48.808;8.820;2023-11-18T12:12:46;2.00;;;1.30;;
70967;SDS011;58629;48.808;8.820;2023-11-18T12:15:12;3.15;;;1.27;;
70967;SDS011;58629;48.808;8.820;2023-11-18T12:23:12;3.03;;;1.13;;
70967;SDS011;58629;48.808;8.820;2023-11-18T12:25:41;2.00;;;1.13;;
70967;SDS011;58629;48.808;8.820;2023-11-18T12:28:07;1.75;;;0.90;;
70967;SDS011;58629;48.808;8.820;2023-11-18T12:33:01;2.03;;;1.00;;
70967;SDS011;58629;48.808;8.820;2023-11-18T12:46:52;3.78;;;1.60;;
70967;SDS011;58629;48.808;8.820;2023-11-18T12:49:36;3.47;;;1.60;;
70967;SDS011;58629;48.808;8.820;2023-11-18T12:52:06;2.22;;;1.45;;
70967;SDS011;58629;48.808;8.820;2023-11-18T12:54:33;2.42;;;1.38;;
70967;SDS011;58629;48.808;8.820;2023-11-18T12:57:02;2.70;;;1.27;;
70967;SDS011;58629;48.808;8.820;2023-11-18T12:59:27;2.95;;;1.30;;
70967;SDS011;58629;48.808;8.820;2023-11-18T13:01:55;2.00;;;1.23;;
70967;SDS011;58629;48.808;8.820;2023-11-18T13:04:23;3.23;;;1.07;;
70967;SDS011;58629;48.808;8.820;2023-11-18T13:06:49;2.33;;;1.10;;
70967;SDS011;58629;48.808;8.820;2023-11-18T13:09:16;1.52;;;1.00;;
70967;SDS011;58629;48.808;8.820;2023-11-18T13:11:54;3.03;;;1.10;;
70967;SDS011;58629;48.808;8.820;2023-11-18T13:14:23;1.93;;;1.23;;
70967;SDS011;58629;48.808;8.820;2023-11-18T13:16:59;2.38;;;1.30;;
70967;SDS011;58629;48.808;8.820;2023-11-18T13:19:28;1.85;;;1.33;;
70967;SDS011;58629;48.808;8.820;2023-11-18T13:22:01;3.10;;;1.50;;
70967;SDS011;58629;48.808;8.820;2023-11-18T13:24:33;2.47;;;1.40;;
70967;SDS011;58629;48.808;8.820;2023-11-18T13:26:59;3.23;;;1.50;;
70967;SDS011;58629;48.808;8.820;2023-11-18T13:29:32;2.95;;;1.40;;
70967;SDS011;58629;48.808;8.820;2023-11-18T13:31:59;2.90;;;1.30;;
70967;SDS011;58629;48.808;8.820;2023-11-18T13:34:28;2.92;;;1.40;;
70967;SDS011;58629;48.808;8.820;2023-11-18T13:36:57;2.10;;;1.40;;
70967;SDS011;58629;48.808;8.820;2023-11-18T13:39:22;1.87;;;1.30;;
70967;SDS011;58629;48.808;8.820;2023-11-18T13:41:48;3.67;;;1.70;;
70967;SDS011;58629;48.808;8.820;2023-11-18T13:44:33;3.20;;;1.45;;
70967;SDS011;58629;48.808;8.820;2023-11-18T13:47:00;2.80;;;1.43;;
70967;SDS011;58629;48.808;8.820;2023-11-18T13:49:30;2.60;;;1.55;;
70967;SDS011;58629;48.808;8.820;2023-11-18T13:51:55;2.85;;;1.70;;
70967;SDS011;58629;48.808;8.820;2023-11-18T13:54:21;2.75;;;1.50;;
70967;SDS011;58629;48.808;8.820;2023-11-18T13:56:48;3.30;;;1.30;;
70967;SDS011;58629;48.808;8.820;2023-11-18T13:59:15;3.00;;;1.57;;
70967;SDS011;58629;48.808;8.820;2023-11-18T14:01:40;3.42;;;1.60;;
70967;SDS011;58629;48.808;8.820;2023-11-18T14:04:07;3.27;;;1.63;;
70967;SDS011;58629;48.808;8.820;2023-11-18T14:06:35;3.17;;;1.90;;
70967;SDS011;58629;48.808;8.820;2023-11-18T14:09:00;4.55;;;2.00;;
70967;SDS011;58629;48.808;8.820;2023-11-18T14:11:26;3.23;;;1.70;;
70967;SDS011;58629;48.808;8.820;2023-11-18T14:13:51;3.20;;;1.70;;
70967;SDS011;58629;48.808;8.820;2023-11-18T14:16:18;3.78;;;1.80;;
70967;SDS011;58629;48.808;8.820;2023-11-18T14:18:46;2.40;;;1.50;;
70967;SDS011;58629;48.808;8.820;2023-11-18T14:21:13;3.38;;;1.80;;
70967;SDS011;58629;48.808;8.820;2023-11-18T14:23:39;2.80;;;1.58;;
70967;SDS011;58629;48.808;8.820;2023-11-18T14:26:08;2.40;;;1.50;;
70967;SDS011;58629;48.808;8.820;2023-11-18T14:28:33;2.17;;;1.48;;
70967;SDS011;58629;48.808;8.820;2023-11-18T14:31:00;2.67;;;1.30;;
70967;SDS011;58629;48.808;8.820;2023-11-18T14:33:26;1.65;;;1.00;;
70967;SDS011;58629;48.808;8.820;2023-11-18T14:35:53;3.87;;;2.03;;
70967;SDS011;58629;48.808;8.820;2023-11-18T14:38:18;4.20;;;1.90;;
70967;SDS011;58629;48.808;8.820;2023-11-18T14:40:45;2.43;;;1.50;;
70967;SDS011;58629;48.808;8.820;2023-11-18T14:43:13;2.20;;;1.48;;
70967;SDS011;58629;48.808;8.820;2023-11-18T14:45:39;3.50;;;2.20;;
70967;SDS011;58629;48.808;8.820;2023-11-18T14:48:05;4.83;;;2.50;;
70967;SDS011;58629;48.808;8.820;2023-11-18T14:50:30;4.87;;;2.47;;
70967;SDS011;58629;48.808;8.820;2023-11-18T14:52:56;4.88;;;2.50;;
70967;SDS011;58629;48.808;8.820;2023-11-18T14:55:27;4.45;;;2.50;;
70967;SDS011;58629;48.808;8.820;2023-11-18T14:57:54;3.22;;;2.28;;
70967;SDS011;58629;48.808;8.820;2023-11-18T15:00:20;3.73;;;2.60;;
70967;SDS011;58629;48.808;8.820;2023-11-18T15:02:53;3.08;;;2.30;;
70967;SDS011;58629;48.808;8.820;2023-11-18T15:05:22;4.45;;;2.78;;
70967;SDS011;58629;48.808;8.820;2023-11-18T15:07:51;3.97;;;2.72;;
70967;SDS011;58629;48.808;8.820;2023-11-18T15:10:21;3.57;;;2.50;;
70967;SDS011;58629;48.808;8.820;2023-11-18T15:13:05;4.47;;;2.90;;
70967;SDS011;58629;48.808;8.820;2023-11-18T15:15:31;4.35;;;2.80;;
70967;SDS011;58629;48.808;8.820;2023-11-18T15:17:57;3.95;;;2.38;;
70967;SDS011;58629;48.808;8.820;2023-11-18T15:20:24;3.60;;;2.10;;
70967;SDS011;58629;48.808;8.820;2023-11-18T15:22:50;4.22;;;2.50;;
70967;SDS011;58629;48.808;8.820;2023-11-18T15:25:16;3.30;;;2.40;;
70967;SDS011;58629;48.808;8.820;2023-11-18T15:27:45;4.90;;;2.97;;